Time;durP1;ratioP1;P1;durP2;ratioP2;P2;SDS_P1;SDS_P2;PMS_P1;PMS_P2;Temp;Humidity;BMP_temperature;BMP_pressure;BME280_temperature;BME280_humidity;BME280_pressure;Samples;Min_cycle;Max_cycle;Signal;HPM_P1;HPM_P2
2022/07/23 00:00:12;;;;;;;75.05;72.25;;;27.20;61.10;;;;;;5014331;28;20185;-88
2022/07/23 00:02:38;;;;;;;73.75;71.00;;;27.20;60.80;;;;;;5020043;28;20292;-87
2022/07/23 00:05:04;;;;;;;71.80;69.13;;;27.20;60.60;;;;;;5011507;28;20214;-87
2022/07/23 00:07:29;;;;;;;66.05;63.50;;;27.10;60.70;;;;;;5007818;28;20205;-87
2022/07/23 00:09:55;;;;;;;65.40;63.00;;;26.90;59.60;;;;;;5004097;28;20183;-87
2022/07/23 00:12:21;;;;;;;75.45;72.35;;;26.80;59.60;;;;;;5011540;28;20232;-87
2022/07/23 00:14:47;;;;;;;64.40;61.70;;;26.70;60.20;;;;;;5010170;28;20194;-87
2022/07/23 00:17:13;;;;;;;63.75;61.22;;;26.80;60.40;;;;;;5010336;28;20210;-86
2022/07/23 00:19:38;;;;;;;57.67;55.28;;;26.80;60.00;;;;;;5002244;28;20689;-86
2022/07/23 00:22:04;;;;;;;54.65;52.40;;;26.60;60.10;;;;;;4977286;28;20216;-87
2022/07/23 00:24:30;;;;;;;61.97;59.45;;;26.60;60.00;;;;;;5008278;28;20224;-88
2022/07/23 00:26:56;;;;;;;62.10;59.72;;;26.50;60.10;;;;;;5018402;28;20202;-87
2022/07/23 00:29:21;;;;;;;64.07;61.47;;;26.40;60.40;;;;;;5016341;28;20193;-87
2022/07/23 00:31:47;;;;;;;57.28;54.90;;;26.50;60.40;;;;;;4999305;28;20186;-86
2022/07/23 00:34:12;;;;;;;56.35;54.25;;;26.50;59.80;;;;;;4989849;28;20538;-87
2022/07/23 00:36:39;;;;;;;49.25;46.75;;;26.60;60.60;;;;;;5016603;28;20217;-88
2022/07/23 00:39:05;;;;;;;46.15;44.25;;;26.60;60.20;;;;;;5016387;28;20189;-86
2022/07/23 00:41:30;;;;;;;44.55;42.75;;;26.70;59.40;;;;;;5016547;28;20186;-87
2022/07/23 00:44:13;;;;;;;43.47;41.67;;;26.60;59.20;;;;;;5007924;28;20206;-87
2022/07/23 00:46:46;;;;;;;43.35;41.38;;;26.60;58.60;;;;;;5015939;28;20209;-87
2022/07/23 00:49:11;;;;;;;40.00;38.30;;;26.80;59.10;;;;;;5010620;28;20170;-87
2022/07/23 00:51:37;;;;;;;42.25;40.45;;;26.80;58.30;;;;;;5000502;28;20256;-86
2022/07/23 00:54:03;;;;;;;42.45;40.55;;;26.80;58.80;;;;;;5011815;28;20240;-87
2022/07/23 00:56:30;;;;;;;42.53;40.72;;;26.90;59.30;;;;;;5013982;28;20294;-87
2022/07/23 00:58:57;;;;;;;44.95;43.15;;;26.80;59.30;;;;;;5020699;28;20205;-87
2022/07/23 01:01:23;;;;;;;45.85;43.88;;;26.60;60.10;;;;;;5013708;28;20285;-87
2022/07/23 01:03:48;;;;;;;46.20;44.40;;;26.70;59.30;;;;;;5016528;28;20225;-87
2022/07/23 01:06:14;;;;;;;46.63;44.47;;;26.70;58.30;;;;;;5017419;28;20209;-87
2022/07/23 01:08:41;;;;;;;44.92;43.05;;;26.70;58.30;;;;;;5009438;28;20190;-88
2022/07/23 01:11:07;;;;;;;55.40;53.38;;;26.70;57.50;;;;;;5006070;28;20315;-86
2022/07/23 01:13:32;;;;;;;57.28;54.97;;;26.60;60.70;;;;;;4999712;28;20197;-87
2022/07/23 01:15:58;;;;;;;61.95;59.45;;;26.30;63.30;;;;;;5017054;28;20202;-86
2022/07/23 01:18:24;;;;;;;67.57;64.88;;;26.10;63.60;;;;;;5017302;28;20197;-88
2022/07/23 01:20:49;;;;;;;71.35;68.68;;;26.10;64.50;;;;;;5013652;28;20186;-88
2022/07/23 01:23:15;;;;;;;67.80;65.13;;;25.90;63.90;;;;;;5011620;28;20841;-88
2022/07/23 01:25:52;;;;;;;69.90;67.05;;;26.00;63.40;;;;;;5019151;28;20549;-86
2022/07/23 01:28:18;;;;;;;53.58;51.38;;;26.00;61.10;;;;;;5015872;28;20209;-87
2022/07/23 01:30:45;;;;;;;57.20;54.67;;;25.90;62.00;;;;;;5010969;28;20197;-87
2022/07/23 01:33:11;;;;;;;58.45;56.17;;;26.00;62.00;;;;;;5009583;28;20190;-87
2022/07/23 01:35:37;;;;;;;57.25;54.97;;;26.10;61.30;;;;;;5015750;28;20280;-86
2022/07/23 01:38:03;;;;;;;60.53;58.17;;;26.10;61.70;;;;;;5012874;28;20582;-87
2022/07/23 01:40:28;;;;;;;67.40;64.82;;;26.10;62.20;;;;;;5010857;28;20196;-87
2022/07/23 01:42:54;;;;;;;68.00;65.28;;;26.10;62.10;;;;;;5004518;28;20222;-88
2022/07/23 01:45:20;;;;;;;67.75;65.28;;;25.90;62.00;;;;;;4994794;28;20186;-88
2022/07/23 01:47:46;;;;;;;79.28;76.32;;;25.90;62.70;;;;;;5008753;28;20833;-88
2022/07/23 01:50:12;;;;;;;87.57;84.47;;;25.90;62.90;;;;;;5011777;28;20208;-87
2022/07/23 01:52:37;;;;;;;91.30;88.20;;;25.90;63.10;;;;;;5012819;28;20594;-86
2022/07/23 01:55:03;;;;;;;93.85;90.60;;;25.90;62.20;;;;;;5019115;28;20229;-86
2022/07/23 01:57:29;;;;;;;91.07;87.93;;;26.00;62.00;;;;;;5002827;28;20792;-87
2022/07/23 01:59:55;;;;;;;106.65;103.18;;;26.10;61.90;;;;;;5013854;28;20222;-87
2022/07/23 02:02:20;;;;;;;106.22;102.50;;;26.10;62.20;;;;;;5018158;28;20236;-87
2022/07/23 02:04:46;;;;;;;109.55;105.90;;;26.00;62.80;;;;;;5014047;28;20185;-88
2022/07/23 02:07:12;;;;;;;114.90;111.05;;;25.90;63.10;;;;;;5002320;28;20213;-88
2022/07/23 02:09:38;;;;;;;114.95;111.18;;;25.90;63.30;;;;;;5015651;28;20598;-87
2022/07/23 02:12:04;;;;;;;109.13;105.53;;;25.90;61.90;;;;;;4992100;28;20186;-87
2022/07/23 02:14:30;;;;;;;116.20;112.30;;;25.90;62.20;;;;;;5015221;28;20175;-85
2022/07/23 02:16:55;;;;;;;131.55;127.25;;;25.80;64.30;;;;;;5017681;28;20209;-84
2022/07/23 02:19:21;;;;;;;131.77;127.57;;;25.70;64.10;;;;;;5018664;28;20739;-88
2022/07/23 02:21:47;;;;;;;123.40;119.30;;;25.70;63.30;;;;;;4990420;28;20186;-88
2022/07/23 02:24:13;;;;;;;121.18;117.28;;;25.80;62.50;;;;;;5019441;28;20398;-88
2022/07/23 02:26:39;;;;;;;97.30;94.00;;;25.90;60.70;;;;;;5014348;28;20233;-86
2022/07/23 02:29:05;;;;;;;94.63;91.30;;;25.70;61.80;;;;;;5024026;28;20674;-86
2022/07/23 02:31:31;;;;;;;97.78;94.32;;;25.70;62.80;;;;;;5001291;28;20450;-88
2022/07/23 02:33:57;;;;;;;104.68;101.18;;;25.80;61.90;;;;;;5023890;28;20835;-86
2022/07/23 02:36:23;;;;;;;98.47;95.10;;;25.80;60.90;;;;;;5021978;28;20213;-87
2022/07/23 02:38:49;;;;;;;101.15;97.78;;;25.70;61.40;;;;;;4985800;28;20189;-87
2022/07/23 02:41:14;;;;;;;96.93;93.32;;;25.70;61.10;;;;;;5019510;28;20178;-87
2022/07/23 02:43:40;;;;;;;105.80;102.40;;;25.70;61.40;;;;;;5022653;28;20205;-87
2022/07/23 02:46:06;;;;;;;112.72;109.03;;;25.70;61.80;;;;;;5015688;28;20392;-88
2022/07/23 02:48:31;;;;;;;113.25;109.50;;;25.70;61.80;;;;;;5015957;28;20186;-87
2022/07/23 02:50:57;;;;;;;123.95;120.00;;;25.70;62.50;;;;;;5014814;28;20198;-88
2022/07/23 02:53:23;;;;;;;123.10;118.90;;;25.70;63.00;;;;;;5019791;28;20198;-85
2022/07/23 02:55:49;;;;;;;136.20;131.77;;;25.60;62.60;;;;;;5006580;28;20181;-87
2022/07/23 02:58:15;;;;;;;133.20;128.85;;;25.50;62.20;;;;;;4990854;28;20392;-85
2022/07/23 03:00:41;;;;;;;117.65;113.85;;;25.50;61.10;;;;;;5022437;28;20185;-87
2022/07/23 03:03:07;;;;;;;103.40;99.68;;;25.50;60.80;;;;;;5019522;28;20209;-87
2022/07/23 03:05:33;;;;;;;103.10;99.80;;;25.50;61.80;;;;;;5013834;28;20194;-87
2022/07/23 03:07:59;;;;;;;100.93;97.47;;;25.40;62.20;;;;;;5009313;28;20260;-87
2022/07/23 03:10:25;;;;;;;114.18;110.47;;;25.30;62.20;;;;;;4988637;28;20194;-87
2022/07/23 03:12:51;;;;;;;98.60;95.20;;;25.50;60.60;;;;;;5000807;28;20201;-87
2022/07/23 03:15:17;;;;;;;97.18;93.97;;;25.50;60.60;;;;;;5020951;28;20190;-86
2022/07/23 03:17:43;;;;;;;94.50;91.30;;;25.40;60.00;;;;;;5004005;28;20284;-87
2022/07/23 03:20:09;;;;;;;94.38;90.97;;;25.50;59.80;;;;;;5010507;28;20202;-85
2022/07/23 03:22:34;;;;;;;81.35;78.22;;;25.40;59.20;;;;;;5021403;28;20210;-87
2022/07/23 03:25:00;;;;;;;73.15;70.45;;;25.30;59.10;;;;;;5005376;28;20208;-88
2022/07/23 03:27:28;;;;;;;71.63;68.93;;;25.10;59.30;;;;;;5016012;28;20705;-87
2022/07/23 03:29:57;;;;;;;73.22;70.63;;;25.20;59.80;;;;;;5008383;28;20339;-86
2022/07/23 03:32:23;;;;;;;76.57;73.97;;;25.20;59.60;;;;;;5019889;28;20220;-88
2022/07/23 03:34:49;;;;;;;81.18;78.28;;;25.30;59.10;;;;;;5016511;28;20237;-87
2022/07/23 03:37:15;;;;;;;78.82;75.95;;;25.20;58.20;;;;;;5015344;28;20217;-87
2022/07/23 03:39:41;;;;;;;84.28;81.25;;;25.20;58.90;;;;;;5018808;28;20201;-87
2022/07/23 03:42:07;;;;;;;102.05;98.72;;;25.00;62.10;;;;;;5016565;28;20186;-88
2022/07/23 03:44:33;;;;;;;117.55;113.75;;;25.00;61.70;;;;;;4997889;28;20194;-87
2022/07/23 03:46:59;;;;;;;116.68;112.88;;;25.10;60.60;;;;;;5014927;28;20216;-88
2022/07/23 03:49:25;;;;;;;84.10;81.10;;;24.90;58.40;;;;;;5011615;28;20268;-88
2022/07/23 03:51:50;;;;;;;81.55;78.85;;;24.90;59.60;;;;;;5011172;28;20201;-88
2022/07/23 03:54:16;;;;;;;80.70;77.65;;;25.00;59.70;;;;;;5007258;28;20210;-87
2022/07/23 03:56:42;;;;;;;80.53;77.72;;;25.00;59.80;;;;;;5016020;28;20210;-88
2022/07/23 03:59:09;;;;;;;72.90;70.40;;;24.90;60.00;;;;;;5004028;28;20225;-87
2022/07/23 04:01:34;;;;;;;75.82;73.13;;;24.70;60.70;;;;;;4993264;28;20193;-88
2022/07/23 04:04:00;;;;;;;70.03;67.63;;;24.60;60.90;;;;;;5017108;28;20213;-86
2022/07/23 04:06:26;;;;;;;68.00;65.53;;;24.50;61.20;;;;;;5013072;28;20210;-88
2022/07/23 04:08:52;;;;;;;67.25;64.93;;;24.40;60.80;;;;;;5016379;28;20182;-88
2022/07/23 04:11:18;;;;;;;76.68;74.07;;;24.30;61.70;;;;;;5005712;28;20237;-89
2022/07/23 04:13:43;;;;;;;83.70;80.90;;;24.40;62.10;;;;;;5023103;28;20189;-88
2022/07/23 04:16:09;;;;;;;90.07;86.97;;;24.50;62.20;;;;;;5010705;28;20209;-88
2022/07/23 04:18:35;;;;;;;107.47;103.95;;;24.60;61.50;;;;;;5003170;28;20267;-87
2022/07/23 04:21:01;;;;;;;94.40;91.40;;;24.70;60.50;;;;;;5013954;28;20438;-87
2022/07/23 04:23:27;;;;;;;98.10;94.90;;;24.80;60.50;;;;;;5012182;28;20198;-88
2022/07/23 04:25:52;;;;;;;85.13;81.97;;;24.90;59.70;;;;;;5017231;28;20224;-88
2022/07/23 04:28:18;;;;;;;91.05;87.90;;;24.80;59.40;;;;;;5007997;28;20197;-86
2022/07/23 04:30:44;;;;;;;101.28;97.78;;;24.90;61.50;;;;;;5001325;28;20175;-89
2022/07/23 04:33:09;;;;;;;103.90;100.47;;;24.80;61.80;;;;;;5010397;28;20209;-87
2022/07/23 04:35:35;;;;;;;97.78;94.35;;;24.70;61.70;;;;;;5009752;28;20661;-88
2022/07/23 04:38:02;;;;;;;111.60;107.95;;;24.70;61.10;;;;;;4995115;28;20221;-87
2022/07/23 04:40:28;;;;;;;121.72;117.93;;;24.70;61.40;;;;;;5005170;28;20200;-88
2022/07/23 04:42:54;;;;;;;117.47;113.65;;;24.80;61.30;;;;;;4997742;28;20233;-87
2022/07/23 04:45:20;;;;;;;124.45;120.60;;;24.80;61.40;;;;;;5017975;28;20680;-88
2022/07/23 04:47:45;;;;;;;126.97;122.97;;;24.80;61.50;;;;;;5016117;28;20261;-88
2022/07/23 04:50:11;;;;;;;154.93;149.75;;;24.70;62.00;;;;;;5011650;28;20182;-88
2022/07/23 04:52:37;;;;;;;170.70;165.50;;;24.70;61.90;;;;;;5012085;28;20301;-87
2022/07/23 04:55:03;;;;;;;184.50;178.85;;;24.80;61.90;;;;;;5007438;28;20523;-86
2022/07/23 04:57:28;;;;;;;193.48;187.65;;;24.90;61.80;;;;;;5014439;28;20221;-87
2022/07/23 04:59:54;;;;;;;203.15;197.15;;;24.90;61.20;;;;;;4993517;28;20220;-87
2022/07/23 05:02:20;;;;;;;214.00;207.60;;;25.10;61.80;;;;;;5023511;28;20229;-88
2022/07/23 05:04:45;;;;;;;222.95;216.45;;;25.10;62.00;;;;;;5029960;28;20241;-87
2022/07/23 05:07:11;;;;;;;233.50;226.70;;;24.90;63.60;;;;;;5011741;28;20214;-89
2022/07/23 05:09:37;;;;;;;224.23;217.73;;;24.60;65.00;;;;;;4999822;28;20194;-88
2022/07/23 05:12:03;;;;;;;227.88;221.18;;;24.80;63.50;;;;;;4995598;28;20187;-86
2022/07/23 05:14:29;;;;;;;228.30;221.60;;;24.80;61.70;;;;;;5006251;28;20194;-88
2022/07/23 05:16:54;;;;;;;238.68;231.63;;;24.90;61.50;;;;;;5016053;28;20232;-87
2022/07/23 05:19:20;;;;;;;236.23;229.30;;;25.10;60.90;;;;;;5023800;28;20192;-87
2022/07/23 05:21:46;;;;;;;214.23;207.93;;;25.10;60.40;;;;;;5026141;28;20185;-87
2022/07/23 05:24:11;;;;;;;220.13;213.73;;;25.20;59.20;;;;;;5024160;28;20216;-86
2022/07/23 05:26:37;;;;;;;221.52;215.07;;;25.30;59.00;;;;;;5005627;28;20218;-86
2022/07/23 05:29:02;;;;;;;221.13;214.43;;;25.40;58.80;;;;;;4991174;28;20194;-87
2022/07/23 05:31:28;;;;;;;213.98;207.63;;;25.20;59.10;;;;;;5018053;28;20261;-87
2022/07/23 05:33:54;;;;;;;246.65;239.57;;;25.10;59.20;;;;;;5008924;28;20194;-88
2022/07/23 05:36:20;;;;;;;284.08;275.88;;;25.10;61.30;;;;;;5003964;28;20225;-87
2022/07/23 05:38:46;;;;;;;296.08;287.42;;;25.20;65.90;;;;;;5008761;28;20249;-88
2022/07/23 05:41:11;;;;;;;288.95;280.67;;;25.00;71.80;;;;;;5005712;28;20190;-88
2022/07/23 05:43:37;;;;;;;289.08;280.77;;;24.80;72.30;;;;;;4990126;28;20224;-87
2022/07/23 05:46:03;;;;;;;296.58;288.13;;;24.70;73.90;;;;;;5013149;28;20707;-88
2022/07/23 05:48:28;;;;;;;316.30;307.20;;;24.60;74.00;;;;;;5013095;28;20195;-87
2022/07/23 05:50:54;;;;;;;315.85;306.60;;;24.60;72.20;;;;;;5017101;28;20190;-87
2022/07/23 05:53:20;;;;;;;283.25;274.92;;;24.60;74.00;;;;;;5019110;28;20209;-88
2022/07/23 05:55:46;;;;;;;217.90;211.38;;;24.60;73.40;;;;;;5009146;28;20190;-87
2022/07/23 05:58:11;;;;;;;61.97;59.78;;;24.80;72.60;;;;;;5010159;28;20185;-87
2022/07/23 06:00:37;;;;;;;75.93;73.18;;;24.80;73.00;;;;;;5007706;28;20194;-85
2022/07/23 06:03:03;;;;;;;106.75;103.18;;;24.60;76.80;;;;;;5019001;28;20244;-85
2022/07/23 06:05:29;;;;;;;194.00;188.18;;;24.50;75.50;;;;;;5017947;28;20198;-87
2022/07/23 06:07:54;;;;;;;348.10;337.83;;;24.40;74.10;;;;;;5012549;28;20202;-87
2022/07/23 06:10:20;;;;;;;388.90;377.52;;;24.40;74.60;;;;;;5014377;28;20181;-87
2022/07/23 06:12:47;;;;;;;483.88;468.92;;;24.50;73.20;;;;;;5012447;28;20232;-86
2022/07/23 06:15:13;;;;;;;503.70;488.00;;;24.40;74.20;;;;;;5014458;28;20201;-86
2022/07/23 06:17:39;;;;;;;501.45;485.35;;;24.10;75.00;;;;;;5017513;28;20242;-86
2022/07/23 06:20:09;;;;;;;498.85;483.15;;;23.90;74.10;;;;;;4998395;28;20218;-86
2022/07/23 06:22:36;;;;;;;461.88;447.73;;;24.00;72.60;;;;;;5022130;28;20216;-86
2022/07/23 06:25:02;;;;;;;401.48;389.65;;;24.00;70.90;;;;;;5018285;28;20227;-85
2022/07/23 06:27:28;;;;;;;375.23;364.10;;;24.20;70.40;;;;;;5018229;28;20234;-86
2022/07/23 06:29:54;;;;;;;423.75;411.08;;;24.30;70.10;;;;;;5020807;28;20190;-86
2022/07/23 06:32:20;;;;;;;418.85;406.30;;;24.30;71.70;;;;;;4999278;28;20182;-87
2022/07/23 06:34:45;;;;;;;440.58;427.17;;;24.30;71.00;;;;;;4991145;28;20193;-86
2022/07/23 06:37:11;;;;;;;426.83;413.95;;;24.00;72.00;;;;;;5002641;28;20260;-87
2022/07/23 06:39:37;;;;;;;413.75;401.45;;;24.10;71.80;;;;;;4991908;28;20728;-88
2022/07/23 06:42:03;;;;;;;393.25;381.65;;;24.20;72.10;;;;;;5015863;28;20272;-87
2022/07/23 06:44:29;;;;;;;384.13;372.48;;;24.30;72.30;;;;;;4997343;28;20185;-88
2022/07/23 06:46:54;;;;;;;367.73;356.83;;;24.40;72.80;;;;;;5018849;28;20209;-87
2022/07/23 06:49:20;;;;;;;250.52;243.23;;;24.50;73.10;;;;;;4995756;28;20208;-87
2022/07/23 06:51:46;;;;;;;188.23;182.43;;;24.60;71.50;;;;;;5023007;28;20206;-87
2022/07/23 06:54:11;;;;;;;156.35;151.40;;;24.60;70.60;;;;;;5007435;28;20212;-87
2022/07/23 06:56:37;;;;;;;144.90;140.15;;;24.80;70.30;;;;;;4999172;28;20213;-87
2022/07/23 06:59:03;;;;;;;145.07;140.38;;;24.60;69.00;;;;;;5006973;28;20197;-87
2022/07/23 07:01:29;;;;;;;170.80;165.35;;;24.40;70.70;;;;;;5022858;28;20193;-86
2022/07/23 07:03:55;;;;;;;178.55;172.90;;;24.40;71.60;;;;;;5024171;28;20201;-88
2022/07/23 07:06:20;;;;;;;186.98;181.23;;;24.30;72.10;;;;;;5013655;28;20224;-88
2022/07/23 07:08:46;;;;;;;170.63;165.27;;;24.30;72.30;;;;;;5024053;28;20174;-87
2022/07/23 07:11:12;;;;;;;158.77;153.77;;;24.40;72.30;;;;;;5024683;28;20189;-87
2022/07/23 07:13:38;;;;;;;133.73;129.43;;;24.50;72.40;;;;;;5025203;28;20213;-85
2022/07/23 07:16:04;;;;;;;151.30;146.50;;;24.70;70.70;;;;;;4998734;28;20812;-86
2022/07/23 07:18:30;;;;;;;123.05;118.93;;;24.80;73.70;;;;;;5018815;28;20182;-86
2022/07/23 07:20:57;;;;;;;152.60;147.73;;;24.70;72.40;;;;;;5026420;28;20240;-86
2022/07/23 07:23:23;;;;;;;238.57;231.27;;;24.60;74.10;;;;;;5007541;28;20210;-89
2022/07/23 07:25:49;;;;;;;161.13;155.68;;;24.70;76.20;;;;;;5005439;28;20232;-88
2022/07/23 07:28:15;;;;;;;113.07;109.22;;;24.80;75.20;;;;;;5014835;28;20184;-87
2022/07/23 07:30:40;;;;;;;107.60;103.97;;;24.80;74.30;;;;;;4991869;28;20229;-87
2022/07/23 07:33:07;;;;;;;70.57;67.95;;;24.90;75.00;;;;;;5023001;28;20173;-87
2022/07/23 07:35:32;;;;;;;57.58;55.17;;;25.00;72.10;;;;;;4987393;28;20769;-87
2022/07/23 07:38:01;;;;;;;56.55;54.20;;;24.80;69.70;;;;;;5005891;28;20274;-90
2022/07/23 07:40:27;;;;;;;50.63;48.50;;;24.80;70.80;;;;;;5002492;28;20244;-88
2022/07/23 07:42:56;;;;;;;56.72;54.40;;;24.80;71.00;;;;;;4988429;28;20205;-88
2022/07/23 07:45:23;;;;;;;48.10;46.00;;;24.80;71.00;;;;;;4999124;28;20192;-87
2022/07/23 07:47:49;;;;;;;55.55;53.35;;;24.90;69.60;;;;;;4983073;28;20236;-87
2022/07/23 07:50:15;;;;;;;48.28;46.17;;;25.00;67.00;;;;;;5017162;28;20190;-87
2022/07/23 07:52:42;;;;;;;51.28;49.08;;;25.10;67.60;;;;;;5033717;28;20182;-93
2022/07/23 07:55:09;;;;;;;59.63;57.17;;;25.30;67.10;;;;;;5018373;28;20181;-86
2022/07/23 07:57:35;;;;;;;56.65;54.45;;;25.50;65.60;;;;;;4985287;28;20210;-87
2022/07/23 08:00:01;;;;;;;59.72;57.13;;;25.60;66.20;;;;;;5017478;28;20192;-87
2022/07/23 08:02:26;;;;;;;56.38;54.17;;;25.70;64.30;;;;;;4990134;28;20300;-87
2022/07/23 08:04:53;;;;;;;60.08;57.78;;;25.80;63.30;;;;;;5012530;28;20205;-87
2022/07/23 08:07:19;;;;;;;57.83;55.58;;;25.70;63.40;;;;;;4994345;28;20228;-86
2022/07/23 08:09:45;;;;;;;59.30;56.90;;;25.80;62.70;;;;;;5008157;28;20190;-86
2022/07/23 08:12:10;;;;;;;62.53;60.13;;;25.70;62.50;;;;;;5017183;28;20230;-86
2022/07/23 08:14:36;;;;;;;64.93;62.38;;;25.70;64.00;;;;;;5011459;28;20640;-87
2022/07/23 08:17:02;;;;;;;54.97;52.88;;;25.80;64.70;;;;;;5015811;28;20220;-87
2022/07/23 08:19:27;;;;;;;61.20;58.80;;;25.70;64.30;;;;;;5002753;28;20280;-87
2022/07/23 08:21:53;;;;;;;61.63;59.22;;;25.70;64.60;;;;;;5003192;28;20198;-88
2022/07/23 08:24:19;;;;;;;55.78;53.55;;;25.70;64.00;;;;;;4998190;28;20623;-87
2022/07/23 08:26:44;;;;;;;57.70;55.55;;;25.40;64.00;;;;;;5010484;28;20205;-86
2022/07/23 08:29:10;;;;;;;61.20;58.80;;;25.70;62.40;;;;;;4999197;28;20213;-87
2022/07/23 08:31:36;;;;;;;58.30;56.10;;;25.50;62.70;;;;;;5011805;28;20192;-87
2022/07/23 08:34:02;;;;;;;61.30;58.80;;;25.60;63.30;;;;;;5007762;28;20186;-87
2022/07/23 08:36:31;;;;;;;63.58;61.00;;;25.90;63.20;;;;;;5012881;28;20369;-87
2022/07/23 08:39:03;;;;;;;65.88;63.30;;;26.00;63.00;;;;;;5013193;28;20189;-86
2022/07/23 08:41:29;;;;;;;62.08;59.50;;;25.90;63.00;;;;;;5019493;28;20220;-87
2022/07/23 08:43:55;;;;;;;60.00;57.70;;;26.10;62.00;;;;;;5020198;28;20194;-85
2022/07/23 08:46:21;;;;;;;64.93;62.53;;;26.40;61.00;;;;;;5026436;28;20301;-88
2022/07/23 08:48:48;;;;;;;60.97;58.67;;;26.40;60.80;;;;;;5011497;28;20301;-87
2022/07/23 08:51:14;;;;;;;63.80;61.30;;;26.50;59.60;;;;;;5008941;28;20178;-88
2022/07/23 08:53:41;;;;;;;64.28;61.78;;;26.40;60.10;;;;;;5000019;28;20275;-86
2022/07/23 08:56:08;;;;;;;63.03;60.72;;;26.50;59.90;;;;;;5014055;28;20223;-87
2022/07/23 08:58:34;;;;;;;63.58;60.78;;;26.70;59.30;;;;;;5004968;28;20277;-87
2022/07/23 09:01:01;;;;;;;60.78;58.47;;;26.30;60.10;;;;;;4997647;28;20254;-86
2022/07/23 09:03:32;;;;;;;72.13;69.43;;;26.50;60.40;;;;;;5013762;28;20628;-86
2022/07/23 09:06:00;;;;;;;64.35;61.83;;;26.40;61.20;;;;;;5011038;28;20285;-86
2022/07/23 09:08:42;;;;;;;65.03;62.47;;;26.50;61.40;;;;;;5010687;28;20204;-86
2022/07/23 09:11:10;;;;;;;72.43;69.63;;;26.40;61.00;;;;;;5015448;28;20181;-86
2022/07/23 09:13:40;;;;;;;58.35;56.15;;;26.30;62.50;;;;;;5020317;28;20201;-86
2022/07/23 09:16:23;;;;;;;45.50;43.40;;;26.70;60.00;;;;;;4995424;28;20293;-88
2022/07/23 09:18:56;;;;;;;45.05;43.25;;;27.40;57.80;;;;;;5009141;28;20182;-86
2022/07/23 09:21:31;;;;;;;39.30;37.60;;;27.60;56.90;;;;;;5015052;28;20247;-87
2022/07/23 09:24:00;;;;;;;38.20;36.40;;;27.90;55.80;;;;;;5013808;28;20212;-87
2022/07/23 09:26:34;;;;;;;41.28;39.38;;;28.10;55.90;;;;;;5015342;28;20269;-87
2022/07/23 09:29:16;;;;;;;39.10;37.15;;;28.20;55.90;;;;;;5001814;28;20194;-86
2022/07/23 09:31:46;;;;;;;38.50;36.83;;;28.40;54.80;;;;;;5010188;28;20186;-85
2022/07/23 09:34:35;;;;;;;40.33;38.60;;;28.30;54.60;;;;;;5002766;28;20186;-86
2022/07/23 09:37:18;;;;;;;39.65;37.88;;;28.50;53.70;;;;;;5009949;28;20228;-87
2022/07/23 09:39:47;;;;;;;38.33;36.53;;;28.70;53.20;;;;;;5011409;28;20198;-86
2022/07/23 09:42:20;;;;;;;38.95;37.28;;;28.60;54.00;;;;;;5003701;28;20197;-86
2022/07/23 09:44:48;;;;;;;42.47;40.67;;;28.80;53.00;;;;;;5008522;28;20188;-86
2022/07/23 09:47:15;;;;;;;49.03;46.80;;;28.70;50.40;;;;;;5011705;28;20214;-85
2022/07/23 09:50:13;;;;;;;55.20;53.10;;;29.00;49.10;;;;;;5012451;28;20190;-85
2022/07/23 09:52:47;;;;;;;68.65;66.05;;;29.10;47.10;;;;;;5008747;28;20214;-86
2022/07/23 09:55:13;;;;;;;65.03;62.65;;;29.40;46.40;;;;;;5010591;28;20718;-86
2022/07/23 09:57:41;;;;;;;68.53;66.10;;;29.30;46.10;;;;;;5006446;28;20253;-84
2022/07/23 10:00:09;;;;;;;64.40;61.95;;;29.50;45.70;;;;;;5012099;28;20198;-86
2022/07/23 10:02:36;;;;;;;67.28;64.65;;;29.50;46.50;;;;;;5017627;28;20214;-84
2022/07/23 10:05:03;;;;;;;63.03;60.72;;;29.60;46.20;;;;;;5009321;28;20186;-85
2022/07/23 10:07:33;;;;;;;62.85;60.55;;;29.80;45.60;;;;;;4993926;28;20322;-85
2022/07/23 10:10:00;;;;;;;55.92;53.72;;;29.90;45.50;;;;;;4997124;28;20190;-87
2022/07/23 10:14:52;;;;;;;57.60;55.50;;;30.20;45.00;;;;;;5015654;28;20197;-85
2022/07/23 10:17:18;;;;;;;54.90;52.80;;;30.10;44.80;;;;;;4994476;28;20232;-86
2022/07/23 10:19:44;;;;;;;66.90;64.30;;;30.00;45.60;;;;;;5017585;28;20205;-86
2022/07/23 10:22:37;;;;;;;72.07;69.18;;;29.80;46.80;;;;;;5011882;28;20327;-85
2022/07/23 10:25:11;;;;;;;67.18;64.75;;;29.70;47.40;;;;;;4997670;28;20198;-86
2022/07/23 10:27:52;;;;;;;57.97;55.67;;;29.90;46.40;;;;;;5003905;28;20226;-85
2022/07/23 10:30:59;;;;;;;51.28;49.28;;;30.30;45.90;;;;;;5006124;28;20177;-84
2022/07/23 10:33:50;;;;;;;50.67;48.50;;;30.50;45.00;;;;;;5007098;28;20196;-84
2022/07/23 10:36:20;;;;;;;55.65;53.42;;;30.60;44.40;;;;;;5007869;28;20213;-84
2022/07/23 10:38:55;;;;;;;50.40;48.53;;;30.40;44.80;;;;;;5007774;28;20178;-84
2022/07/23 10:41:34;;;;;;;54.63;52.50;;;30.70;44.30;;;;;;5004205;28;20236;-83
2022/07/23 10:44:22;;;;;;;52.83;50.72;;;30.80;44.50;;;;;;5017909;28;20221;-85
2022/07/23 10:49:29;;;;;;;46.08;44.08;;;31.10;43.40;;;;;;5013740;28;20189;-85
2022/07/23 10:52:28;;;;;;;42.92;41.13;;;31.40;42.50;;;;;;5006581;28;20201;-87
2022/07/23 10:55:16;;;;;;;45.33;43.35;;;31.30;43.10;;;;;;4991838;28;20289;-86
2022/07/23 10:57:50;;;;;;;49.13;47.00;;;31.40;42.10;;;;;;5005402;28;20216;-86
2022/07/23 11:00:24;;;;;;;44.03;42.22;;;31.30;41.30;;;;;;5016309;28;20244;-87
2022/07/23 11:02:51;;;;;;;46.08;44.05;;;31.30;42.50;;;;;;5013724;28;20918;-88
2022/07/23 11:05:20;;;;;;;50.85;48.95;;;31.60;41.00;;;;;;5018417;28;20221;-86
2022/07/23 11:08:04;;;;;;;48.95;47.10;;;31.80;40.40;;;;;;5011600;28;20225;-86
2022/07/23 11:10:38;;;;;;;43.15;41.47;;;32.00;39.40;;;;;;5019263;28;20193;-87
2022/07/23 11:13:25;;;;;;;45.25;43.35;;;31.50;39.90;;;;;;4994173;28;20201;-86
2022/07/23 11:16:00;;;;;;;41.53;39.65;;;31.60;41.00;;;;;;5013855;28;20262;-87
2022/07/23 11:18:44;;;;;;;42.20;40.45;;;31.00;41.50;;;;;;5016056;28;20216;-87
2022/07/23 11:21:41;;;;;;;40.47;38.88;;;31.10;42.60;;;;;;5007958;28;20196;-86
2022/07/23 11:24:07;;;;;;;41.85;40.15;;;31.30;42.20;;;;;;5010332;28;20217;-86
2022/07/23 11:26:47;;;;;;;41.05;39.40;;;31.00;42.50;;;;;;5009723;28;20202;-87
2022/07/23 11:29:28;;;;;;;41.83;40.22;;;31.10;40.70;;;;;;5017963;28;20185;-86
2022/07/23 11:32:07;;;;;;;48.22;46.33;;;31.60;39.80;;;;;;5014784;28;20265;-88
2022/07/23 11:34:43;;;;;;;50.58;48.53;;;32.10;39.60;;;;;;4995965;28;20220;-87
2022/07/23 11:37:12;;;;;;;49.60;47.60;;;32.30;39.30;;;;;;5008203;28;20213;-87
2022/07/23 11:39:38;;;;;;;47.72;45.78;;;32.30;40.40;;;;;;5017757;28;20213;-85
2022/07/23 11:42:06;;;;;;;49.53;47.42;;;32.70;38.00;;;;;;5020878;28;20190;-86
2022/07/23 11:44:39;;;;;;;44.58;42.67;;;32.90;38.10;;;;;;5021308;28;20197;-86
2022/07/23 11:47:10;;;;;;;49.17;46.80;;;33.10;38.00;;;;;;5019226;28;20198;-86
2022/07/23 11:49:36;;;;;;;47.47;45.60;;;33.10;38.30;;;;;;5002671;28;20186;-86
2022/07/23 11:52:14;;;;;;;47.00;45.00;;;33.30;37.60;;;;;;5009064;28;20232;-87
2022/07/23 11:54:56;;;;;;;56.25;53.95;;;33.30;37.40;;;;;;5002886;28;20197;-87
2022/07/23 11:57:26;;;;;;;52.00;49.90;;;32.90;37.70;;;;;;5011434;28;20289;-88
2022/07/23 11:59:56;;;;;;;55.47;53.30;;;33.10;38.20;;;;;;5012306;28;20216;-86
2022/07/23 12:02:22;;;;;;;50.65;48.75;;;33.10;38.20;;;;;;5022165;28;20213;-87
2022/07/23 12:04:50;;;;;;;49.80;47.88;;;33.00;37.60;;;;;;5017212;28;20545;-88
2022/07/23 12:07:33;;;;;;;48.08;46.17;;;33.10;37.70;;;;;;5009163;28;20206;-86
2022/07/23 12:10:03;;;;;;;61.35;59.05;;;33.50;36.30;;;;;;5001512;28;20254;-89
2022/07/23 12:12:39;;;;;;;66.85;64.47;;;33.40;35.60;;;;;;5015907;28;20197;-87
2022/07/23 12:15:06;;;;;;;100.22;96.70;;;33.70;34.90;;;;;;5009341;28;20189;-88
2022/07/23 12:17:36;;;;;;;111.32;107.50;;;34.20;34.50;;;;;;5013381;28;20250;-87
2022/07/23 12:20:05;;;;;;;61.67;59.38;;;34.10;34.70;;;;;;5004807;28;20278;-88
2022/07/23 12:22:45;;;;;;;81.50;78.80;;;33.50;36.00;;;;;;5011005;28;20221;-89
2022/07/23 12:25:19;;;;;;;120.97;117.07;;;33.90;34.60;;;;;;5015774;28;20190;-86
2022/07/23 12:27:57;;;;;;;59.92;57.63;;;34.40;34.40;;;;;;4987258;28;20210;-89
2022/07/23 12:30:25;;;;;;;65.78;63.28;;;33.90;35.40;;;;;;5012788;28;20192;-86